Time,TemperatureF,DewpointF,PressureIn,WindDirection,WindDirectionDegrees,WindSpeedMPH,WindSpeedGustMPH,Humidity,HourlyPrecipIn,Conditions,Clouds,dailyrainin,SoftwareType,DateUTC
2013-09-24 00:01:00,45.8,38.7,29.99,NNW,343,0.0,0.0,76,0.00,CLR,,0.00,WeatherDisplay:10.37,2013-09-24 04:01:00,
2013-09-24 00:02:00,46.0,38.9,29.99,NNW,343,0.0,0.0,76,0.00,CLR,,0.00,WeatherDisplay:10.37,2013-09-24 04:02:00,
2013-09-24 00:04:00,45.6,38.5,29.99,NNW,343,0.0,0.0,76,0.00,CLR,,0.00,WeatherDisplay:10.37,2013-09-24 04:04:00,
2013-09-24 00:09:00,45.4,38.3,29.99,NNW,343,0.0,0.0,76,0.00,CLR,,0.00,WeatherDisplay:10.37,2013-09-24 04:09:00,
2013-09-24 00:14:00,44.8,37.7,29.98,NNW,343,2.3,2.3,76,0.00,CLR,,0.00,WeatherDisplay:10.37,2013-09-24 04:14:00,
2013-09-24 00:19:00,45.3,38.2,29.98,NNW,343,2.3,0.0,76,0.00,CLR,,0.00,WeatherDisplay:10.37,2013-09-24 04:19:00,
2013-09-24 00:24:00,46.0,38.9,29.98,NNW,343,0.0,0.0,76,0.00,CLR,,0.00,WeatherDisplay:10.37,2013-09-24 04:24:00,
2013-09-24 00:29:00,45.7,38.6,29.98,NNW,343,0.0,0.0,76,0.00,CLR,,0.00,WeatherDisplay:10.37,2013-09-24 04:29:00,
2013-09-24 00:34:00,46.4,39.2,29.98,NNW,343,0.0,0.0,76,0.00,CLR,,0.00,WeatherDisplay:10.37,2013-09-24 04:34:00,
2013-09-24 00:39:00,46.4,39.2,29.98,NNW,343,0.0,0.0,76,0.00,CLR,,0.00,WeatherDisplay:10.37,2013-09-24 04:39:00,
2013-09-24 00:44:00,45.5,38.4,29.98,NNW,343,0.0,0.0,76,0.00,CLR,,0.00,WeatherDisplay:10.37,2013-09-24 04:44:00,
2013-09-24 00:49:00,45.7,38.6,29.98,NNW,343,1.1,0.0,76,0.00,CLR,,0.00,WeatherDisplay:10.37,2013-09-24 04:49:00,
2013-09-24 00:54:00,45.5,38.4,29.98,NNW,343,0.0,0.0,76,0.00,CLR,,0.00,WeatherDisplay:10.37,2013-09-24 04:54:00,
2013-09-24 00:59:00,45.3,38.2,29.98,NNW,343,0.0,0.0,76,0.00,CLR,,0.00,WeatherDisplay:10.37,2013-09-24 04:59:00,
2013-09-24 01:04:00,46.1,39.9,29.98,NNW,343,0.0,0.0,79,0.00,CLR,,0.00,WeatherDisplay:10.37,2013-09-24 05:04:00,
2013-09-24 01:09:00,45.7,39.6,29.98,NNW,343,0.0,0.0,79,0.00,CLR,,0.00,WeatherDisplay:10.37,2013-09-24 05:09:00,
2013-09-24 01:14:00,46.0,39.9,29.98,NNW,343,0.0,0.0,79,0.00,CLR,,0.00,WeatherDisplay:10.37,2013-09-24 05:14:00,
2013-09-24 01:19:00,45.9,39.8,29.98,NNW,343,0.0,0.0,79,0.00,CLR,,0.00,WeatherDisplay:10.37,2013-09-24 05:19:00,
2013-09-24 01:24:00,45.9,39.8,29.98,NNW,343,0.0,0.0,79,0.00,CLR,,0.00,WeatherDisplay:10.37,2013-09-24 05:24:00,
2013-09-24 01:29:00,46.2,40.0,29.98,NNW,343,0.0,0.0,79,0.00,CLR,,0.00,WeatherDisplay:10.37,2013-09-24 05:29:00,
2013-09-24 01:34:00,45.7,39.6,29.98,NNW,343,0.0,0.0,79,0.00,CLR,,0.00,WeatherDisplay:10.37,2013-09-24 05:34:00,
2013-09-24 01:39:00,45.6,39.5,29.98,NNW,343,0.0,0.0,79,0.00,CLR,,0.00,WeatherDisplay:10.37,2013-09-24 05:39:00,
2013-09-24 01:44:00,45.7,39.6,29.98,NNW,343,0.0,0.0,79,0.00,CLR,,0.00,WeatherDisplay:10.37,2013-09-24 05:44:00,
2013-09-24 01:49:00,45.1,39.0,29.98,NNW,343,0.0,0.0,79,0.00,CLR,,0.00,WeatherDisplay:10.37,2013-09-24 05:49:00,
2013-09-24 01:54:00,44.8,38.7,29.98,NNW,343,2.3,2.3,79,0.00,CLR,,0.00,WeatherDisplay:10.37,2013-09-24 05:54:00,
2013-09-24 01:59:00,45.1,39.0,29.98,NNW,343,0.0,0.0,79,0.00,CLR,,0.00,WeatherDisplay:10.37,2013-09-24 05:59:00,
2013-09-24 02:04:00,44.7,37.6,29.97,NNW,343,3.5,3.5,76,0.00,CLR,,0.00,WeatherDisplay:10.37,2013-09-24 06:04:00,
2013-09-24 02:09:00,44.6,37.5,29.97,NNW,343,0.0,0.0,76,0.00,CLR,,0.00,WeatherDisplay:10.37,2013-09-24 06:09:00,
2013-09-24 02:14:00,44.3,37.2,29.97,NNW,343,2.3,2.3,76,0.00,CLR,,0.00,WeatherDisplay:10.37,2013-09-24 06:14:00,
2013-09-24 02:19:00,44.7,37.6,29.97,NNW,343,2.3,2.3,76,0.00,CLR,,0.00,WeatherDisplay:10.37,2013-09-24 06:19:00,
2013-09-24 02:24:00,44.4,37.3,29.97,NNW,343,3.5,3.5,76,0.00,CLR,,0.00,WeatherDisplay:10.37,2013-09-24 06:24:00,
2013-09-24 02:29:00,44.8,37.7,29.97,NNW,343,0.0,0.0,76,0.00,CLR,,0.00,WeatherDisplay:10.37,2013-09-24 06:29:00,
2013-09-24 02:34:00,44.3,37.2,29.97,NNW,343,1.0,1.0,76,0.00,CLR,,0.00,WeatherDisplay:10.37,2013-09-24 06:34:00,
2013-09-24 02:39:00,45.2,38.1,29.97,NNW,343,0.0,0.0,76,0.00,CLR,,0.00,WeatherDisplay:10.37,2013-09-24 06:39:00,
2013-09-24 02:44:00,45.9,38.8,29.97,NNW,343,0.0,0.0,76,0.00,CLR,,0.00,WeatherDisplay:10.37,2013-09-24 06:44:00,
2013-09-24 02:49:00,44.4,37.3,29.97,NNW,342,3.5,3.5,76,0.00,CLR,,0.00,WeatherDisplay:10.37,2013-09-24 06:49:00,
2013-09-24 02:54:00,44.5,37.4,29.97,NNW,342,3.5,3.5,76,0.00,CLR,,0.00,WeatherDisplay:10.37,2013-09-24 06:54:00,
2013-09-24 02:59:00,44.4,37.3,29.97,NNW,342,3.5,3.5,76,0.00,CLR,,0.00,WeatherDisplay:10.37,2013-09-24 06:59:00,
2013-09-24 03:04:00,44.5,37.4,29.95,NNW,342,3.0,3.0,76,0.00,CLR,,0.00,WeatherDisplay:10.37,2013-09-24 07:04:00,
2013-09-24 03:09:00,44.5,37.4,29.95,NNW,342,3.5,3.5,76,0.00,CLR,,0.00,WeatherDisplay:10.37,2013-09-24 07:09:00,
2013-09-24 03:14:00,44.7,37.6,29.95,NNW,342,3.5,3.5,76,0.00,CLR,,0.00,WeatherDisplay:10.37,2013-09-24 07:14:00,
2013-09-24 03:19:00,45.6,38.5,29.95,NNW,342,0.0,0.0,76,0.00,CLR,,0.00,WeatherDisplay:10.37,2013-09-24 07:19:00,
2013-09-24 03:24:00,45.6,38.5,29.95,NNW,342,0.0,0.0,76,0.00,CLR,,0.00,WeatherDisplay:10.37,2013-09-24 07:24:00,
2013-09-24 03:29:00,45.2,38.1,29.95,NNW,342,0.0,0.0,76,0.00,CLR,,0.00,WeatherDisplay:10.37,2013-09-24 07:29:00,
2013-09-24 03:34:00,45.0,37.9,29.95,NNW,342,0.0,0.0,76,0.00,CLR,,0.00,WeatherDisplay:10.37,2013-09-24 07:34:00,
2013-09-24 03:39:00,45.2,38.1,29.95,NNW,341,3.5,3.5,76,0.00,CLR,,0.00,WeatherDisplay:10.37,2013-09-24 07:39:00,
2013-09-24 03:44:00,45.6,38.5,29.95,NNW,341,2.3,2.3,76,0.00,CLR,,0.00,WeatherDisplay:10.37,2013-09-24 07:44:00,
2013-09-24 03:49:00,44.8,37.7,29.95,NNW,341,2.3,2.3,76,0.00,CLR,,0.00,WeatherDisplay:10.37,2013-09-24 07:49:00,
2013-09-24 03:54:00,45.4,38.3,29.95,NNW,341,2.3,2.3,76,0.00,CLR,,0.00,WeatherDisplay:10.37,2013-09-24 07:54:00,
2013-09-24 03:59:00,45.4,38.3,29.95,NNW,341,2.3,2.3,76,0.00,CLR,,0.00,WeatherDisplay:10.37,2013-09-24 07:59:00,
2013-09-24 04:04:00,44.2,37.1,29.95,NNW,341,0.0,0.0,76,0.00,CLR,,0.00,WeatherDisplay:10.37,2013-09-24 08:04:00,
2013-09-24 04:09:00,43.5,36.4,29.95,NNW,341,0.0,0.0,76,0.00,CLR,,0.00,WeatherDisplay:10.37,2013-09-24 08:09:00,
2013-09-24 04:14:00,44.2,37.1,29.95,NW,308,2.3,2.3,76,0.00,CLR,,0.00,WeatherDisplay:10.37,2013-09-24 08:14:00,
2013-09-24 04:19:00,44.6,37.5,29.95,NW,308,0.0,0.0,76,0.00,CLR,,0.00,WeatherDisplay:10.37,2013-09-24 08:19:00,
2013-09-24 04:24:00,46.1,39.0,29.95,NW,308,0.0,0.0,76,0.00,CLR,,0.00,WeatherDisplay:10.37,2013-09-24 08:24:00,
2013-09-24 04:29:00,44.3,37.2,29.95,NW,304,3.5,3.5,76,0.00,CLR,,0.00,WeatherDisplay:10.37,2013-09-24 08:29:00,
2013-09-24 04:34:00,45.1,38.0,29.95,NW,304,0.0,0.0,76,0.00,CLR,,0.00,WeatherDisplay:10.37,2013-09-24 08:34:00,
2013-09-24 04:39:00,45.6,38.5,29.95,NW,304,0.0,0.0,76,0.00,CLR,,0.00,WeatherDisplay:10.37,2013-09-24 08:39:00,
2013-09-24 04:44:00,45.4,38.3,29.95,NW,304,0.0,0.0,76,0.00,CLR,,0.00,WeatherDisplay:10.37,2013-09-24 08:44:00,
2013-09-24 04:49:00,45.8,38.7,29.95,NW,305,0.0,0.0,76,0.00,CLR,,0.00,WeatherDisplay:10.37,2013-09-24 08:49:00,
2013-09-24 04:54:00,45.6,38.5,29.95,NW,305,0.0,0.0,76,0.00,CLR,,0.00,WeatherDisplay:10.37,2013-09-24 08:54:00,
2013-09-24 04:59:00,45.2,38.1,29.95,NW,304,0.0,0.0,76,0.00,CLR,,0.00,WeatherDisplay:10.37,2013-09-24 08:59:00,
2013-09-24 05:04:00,44.7,35.5,29.94,NW,304,0.0,0.0,70,0.00,CLR,,0.00,WeatherDisplay:10.37,2013-09-24 09:04:00,
2013-09-24 05:09:00,45.2,36.0,29.94,NW,304,0.0,0.0,70,0.00,CLR,,0.00,WeatherDisplay:10.37,2013-09-24 09:09:00,
2013-09-24 05:14:00,45.6,36.4,29.94,NW,305,0.0,0.0,70,0.00,CLR,,0.00,WeatherDisplay:10.37,2013-09-24 09:14:00,
2013-09-24 05:19:00,44.8,35.6,29.94,NW,304,0.0,0.0,70,0.00,CLR,,0.00,WeatherDisplay:10.37,2013-09-24 09:19:00,
2013-09-24 05:24:00,44.2,35.0,29.94,NW,305,2.3,2.3,70,0.00,CLR,,0.00,WeatherDisplay:10.37,2013-09-24 09:24:00,
2013-09-24 05:29:00,43.8,34.6,29.94,NW,305,0.0,0.0,70,0.00,CLR,,0.00,WeatherDisplay:10.37,2013-09-24 09:29:00,
2013-09-24 05:34:00,43.7,34.6,29.94,NW,305,0.0,0.0,70,0.00,CLR,,0.00,WeatherDisplay:10.37,2013-09-24 09:34:00,
2013-09-24 05:39:00,42.9,33.8,29.94,NW,304,0.0,0.0,70,0.00,CLR,,0.00,WeatherDisplay:10.37,2013-09-24 09:39:00,
2013-09-24 05:44:00,43.5,34.4,29.94,NW,304,0.0,0.0,70,0.00,CLR,,0.00,WeatherDisplay:10.37,2013-09-24 09:44:00,
2013-09-24 05:49:00,42.9,33.8,29.94,NW,304,0.0,0.0,70,0.00,CLR,,0.00,WeatherDisplay:10.37,2013-09-24 09:49:00,
2013-09-24 05:54:00,42.3,33.2,29.94,NW,304,0.0,0.0,70,0.00,CLR,,0.00,WeatherDisplay:10.37,2013-09-24 09:54:00,
2013-09-24 05:59:00,42.5,33.4,29.94,NW,304,0.0,0.0,70,0.00,CLR,,0.00,WeatherDisplay:10.37,2013-09-24 09:59:00,
2013-09-24 06:04:00,42.3,33.2,29.94,NW,304,0.0,0.0,70,0.00,CLR,,0.00,WeatherDisplay:10.37,2013-09-24 10:04:00,
2013-09-24 06:09:00,42.9,33.8,29.94,NW,304,0.0,0.0,70,0.00,CLR,,0.00,WeatherDisplay:10.37,2013-09-24 10:09:00,
2013-09-24 06:14:00,43.9,34.8,29.93,NW,304,0.0,2.0,70,0.00,BKN,,0.00,WeatherDisplay:10.37,2013-09-24 10:14:00,
2013-09-24 06:19:00,43.6,34.5,29.93,NW,304,1.0,3.0,70,0.00,BKN,,0.00,WeatherDisplay:10.37,2013-09-24 10:19:00,
2013-09-24 06:24:00,43.6,34.5,29.93,NW,304,2.0,4.0,70,0.00,BKN,,0.00,WeatherDisplay:10.37,2013-09-24 10:24:00,
2013-09-24 06:29:00,43.6,34.4,29.93,NW,304,1.0,4.0,70,0.00,BKN,,0.00,WeatherDisplay:10.37,2013-09-24 10:29:00,
2013-09-24 06:34:00,43.5,34.4,29.93,NW,304,0.0,4.0,70,0.00,BKN,,0.00,WeatherDisplay:10.37,2013-09-24 10:34:00,
2013-09-24 06:39:00,43.3,34.2,29.93,NW,305,1.0,2.0,70,0.00,BKN,,0.00,WeatherDisplay:10.37,2013-09-24 10:39:00,
2013-09-24 06:44:00,44.2,35.0,29.94,NW,305,1.0,3.0,70,0.00,SCT,,0.00,WeatherDisplay:10.37,2013-09-24 10:44:00,
2013-09-24 06:49:00,44.0,34.8,29.94,NW,305,1.0,3.0,70,0.00,SCT,,0.00,WeatherDisplay:10.37,2013-09-24 10:49:00,
2013-09-24 06:54:00,44.0,34.9,29.94,NW,305,1.0,2.0,70,0.00,SCT,,0.00,WeatherDisplay:10.37,2013-09-24 10:54:00,
2013-09-24 06:59:00,43.1,34.0,29.94,NW,305,2.0,4.0,70,0.00,SCT,,0.00,WeatherDisplay:10.37,2013-09-24 10:59:00,
2013-09-24 07:04:00,43.9,35.8,29.93,NW,305,2.0,4.0,73,0.00,CLR,,0.00,WeatherDisplay:10.37,2013-09-24 11:04:00,
2013-09-24 07:09:00,43.8,35.7,29.93,NNW,334,5.8,5.8,73,0.00,CLR,,0.00,WeatherDisplay:10.37,2013-09-24 11:09:00,
2013-09-24 07:14:00,43.7,35.6,29.93,NW,311,3.0,8.0,73,0.00,CLR,,0.00,WeatherDisplay:10.37,2013-09-24 11:14:00,
2013-09-24 07:19:00,43.9,35.8,29.93,NW,306,3.0,6.0,73,0.00,CLR,,0.00,WeatherDisplay:10.37,2013-09-24 11:19:00,
2013-09-24 07:24:00,44.2,36.1,29.93,NW,306,3.0,5.0,73,0.00,CLR,,0.00,WeatherDisplay:10.37,2013-09-24 11:24:00,
2013-09-24 07:29:00,44.2,36.1,29.93,NW,305,3.0,5.0,73,0.00,CLR,,0.00,WeatherDisplay:10.37,2013-09-24 11:29:00,
2013-09-24 07:34:00,44.3,36.2,29.93,NW,306,3.0,5.0,73,0.00,CLR,,0.00,WeatherDisplay:10.37,2013-09-24 11:34:00,
2013-09-24 07:39:00,44.4,36.3,29.93,NW,305,3.0,5.0,73,0.00,CLR,,0.00,WeatherDisplay:10.37,2013-09-24 11:39:00,
2013-09-24 07:44:00,44.4,36.3,29.93,NW,305,3.0,5.0,73,0.00,CLR,,0.00,WeatherDisplay:10.37,2013-09-24 11:44:00,
2013-09-24 07:49:00,44.7,36.6,29.93,NW,305,5.0,7.0,73,0.00,CLR,,0.00,WeatherDisplay:10.37,2013-09-24 11:49:00,
2013-09-24 07:54:00,45.4,37.2,29.93,WNW,301,2.0,6.0,73,0.00,CLR,,0.00,WeatherDisplay:10.37,2013-09-24 11:54:00,
2013-09-24 08:00:00,45.5,37.3,29.93,West,278,0.0,0.0,73,0.00,CLR,,0.00,WeatherDisplay:10.37,2013-09-24 12:00:00,
2013-09-24 08:05:00,45.7,37.5,29.93,SW,231,3.5,3.5,73,0.00,CLR,,0.00,WeatherDisplay:10.37,2013-09-24 12:05:00,
2013-09-24 08:10:00,45.2,37.1,29.93,NW,308,4.6,4.6,73,0.00,CLR,,0.00,WeatherDisplay:10.37,2013-09-24 12:10:00,
2013-09-24 08:15:00,45.3,34.2,29.92,WNW,299,6.9,6.9,65,0.00,CLR,,0.00,WeatherDisplay:10.37,2013-09-24 12:15:00,
2013-09-24 08:20:00,45.6,34.5,29.92,WNW,296,6.9,6.9,65,0.00,CLR,,0.00,WeatherDisplay:10.37,2013-09-24 12:20:00,
2013-09-24 08:25:00,45.4,34.3,29.92,WNW,301,5.8,5.8,65,0.00,CLR,,0.00,WeatherDisplay:10.37,2013-09-24 12:25:00,
2013-09-24 08:30:00,45.9,34.8,29.92,NW,321,5.0,5.0,65,0.00,CLR,,0.00,WeatherDisplay:10.37,2013-09-24 12:30:00,
2013-09-24 08:35:00,45.8,34.7,29.92,NW,308,5.0,5.0,65,0.00,CLR,,0.00,WeatherDisplay:10.37,2013-09-24 12:35:00,
2013-09-24 08:40:00,46.3,35.2,29.92,WNW,285,6.9,6.9,65,0.00,CLR,,0.00,WeatherDisplay:10.37,2013-09-24 12:40:00,
2013-09-24 08:45:00,46.6,35.5,29.92,North,354,4.0,4.0,65,0.00,CLR,,0.00,WeatherDisplay:10.37,2013-09-24 12:45:00,
2013-09-24 08:50:00,46.8,35.6,29.92,WNW,301,2.3,2.3,65,0.00,CLR,,0.00,WeatherDisplay:10.37,2013-09-24 12:50:00,
2013-09-24 08:55:00,45.6,34.5,29.92,WNW,301,3.5,3.5,65,0.00,CLR,,0.00,WeatherDisplay:10.37,2013-09-24 12:55:00,
2013-09-24 09:00:00,45.6,34.5,29.92,WNW,301,3.5,3.5,65,0.00,CLR,,0.00,WeatherDisplay:10.37,2013-09-24 13:00:00,
2013-09-24 09:05:00,45.6,34.5,29.92,WNW,301,4.0,4.0,65,0.00,CLR,,0.00,WeatherDisplay:10.37,2013-09-24 13:05:00,
2013-09-24 09:10:00,45.6,34.5,29.92,NW,313,5.8,5.8,65,0.00,CLR,,0.00,WeatherDisplay:10.37,2013-09-24 13:10:00,
2013-09-24 09:15:00,46.1,33.0,29.91,NW,317,4.0,4.0,60,0.00,CLR,,0.00,WeatherDisplay:10.37,2013-09-24 13:15:00,
2013-09-24 09:20:00,47.3,34.1,29.91,NNW,327,3.5,3.5,60,0.00,CLR,,0.00,WeatherDisplay:10.37,2013-09-24 13:20:00,
2013-09-24 09:25:00,46.4,33.3,29.91,NW,325,3.5,3.5,60,0.00,CLR,,0.00,WeatherDisplay:10.37,2013-09-24 13:25:00,
2013-09-24 09:30:00,46.3,33.2,29.91,WNW,285,3.5,3.5,60,0.00,CLR,,0.00,WeatherDisplay:10.37,2013-09-24 13:30:00,
2013-09-24 09:35:00,46.8,33.6,29.91,WNW,285,3.5,3.5,60,0.00,CLR,,0.00,WeatherDisplay:10.37,2013-09-24 13:35:00,
2013-09-24 09:40:00,46.6,33.4,29.91,WNW,285,4.0,4.0,60,0.00,CLR,,0.00,WeatherDisplay:10.37,2013-09-24 13:40:00,
2013-09-24 09:45:00,47.2,34.0,29.91,WNW,285,4.6,4.6,60,0.00,CLR,,0.00,WeatherDisplay:10.37,2013-09-24 13:45:00,
2013-09-24 09:50:00,46.5,33.4,29.91,WNW,303,5.8,5.8,60,0.00,CLR,,0.00,WeatherDisplay:10.37,2013-09-24 13:50:00,
2013-09-24 09:55:00,46.8,33.6,29.91,NW,305,4.6,4.6,60,0.00,CLR,,0.00,WeatherDisplay:10.37,2013-09-24 13:55:00,
2013-09-24 10:00:00,47.6,34.4,29.91,WNW,293,5.0,5.0,60,0.00,CLR,,0.00,WeatherDisplay:10.37,2013-09-24 14:00:00,
2013-09-24 10:05:00,48.0,33.9,29.91,WNW,302,4.6,4.6,58,0.00,CLR,,0.00,WeatherDisplay:10.37,2013-09-24 14:05:00,
2013-09-24 10:10:00,48.7,34.6,29.91,WNW,302,3.5,3.5,58,0.00,CLR,,0.00,WeatherDisplay:10.37,2013-09-24 14:10:00,
2013-09-24 10:15:00,47.6,33.5,29.91,WNW,285,5.8,5.8,58,0.00,CLR,,0.00,WeatherDisplay:10.37,2013-09-24 14:15:00,
2013-09-24 10:20:00,48.7,34.6,29.91,NW,308,6.0,6.0,58,0.00,CLR,,0.00,WeatherDisplay:10.37,2013-09-24 14:20:00,
2013-09-24 10:25:00,48.5,34.4,29.91,WNW,294,4.0,4.0,58,0.00,CLR,,0.00,WeatherDisplay:10.37,2013-09-24 14:25:00,
2013-09-24 10:30:00,49.8,35.6,29.91,NW,306,3.5,3.5,58,0.00,CLR,,0.00,WeatherDisplay:10.37,2013-09-24 14:30:00,
2013-09-24 10:35:00,49.9,35.7,29.91,WNW,297,3.5,3.5,58,0.00,CLR,,0.00,WeatherDisplay:10.37,2013-09-24 14:35:00,
2013-09-24 10:40:00,50.0,35.8,29.91,WNW,296,4.0,4.0,58,0.00,CLR,,0.00,WeatherDisplay:10.37,2013-09-24 14:40:00,
2013-09-24 10:45:00,49.1,34.9,29.91,WNW,294,4.6,4.6,58,0.00,CLR,,0.00,WeatherDisplay:10.37,2013-09-24 14:45:00,
2013-09-24 10:50:00,49.6,35.4,29.91,NW,314,4.6,4.6,58,0.00,CLR,,0.00,WeatherDisplay:10.37,2013-09-24 14:50:00,
2013-09-24 10:55:00,49.9,35.7,29.91,NW,304,5.8,5.8,58,0.00,CLR,,0.00,WeatherDisplay:10.37,2013-09-24 14:55:00,
2013-09-24 11:00:00,50.4,36.2,29.91,WNW,290,8.1,8.1,58,0.00,CLR,,0.00,WeatherDisplay:10.37,2013-09-24 15:00:00,
2013-09-24 11:05:00,50.3,34.3,29.90,WNW,286,6.0,6.0,54,0.00,CLR,,0.00,WeatherDisplay:10.37,2013-09-24 15:05:00,
2013-09-24 11:10:00,50.4,34.4,29.90,NW,310,5.0,5.0,54,0.00,CLR,,0.00,WeatherDisplay:10.37,2013-09-24 15:10:00,
2013-09-24 11:15:00,50.7,34.6,29.90,NW,315,5.8,5.8,54,0.00,CLR,,0.00,WeatherDisplay:10.37,2013-09-24 15:15:00,
2013-09-24 11:20:00,51.4,35.3,29.90,NW,312,4.6,4.6,54,0.00,CLR,,0.00,WeatherDisplay:10.37,2013-09-24 15:20:00,
2013-09-24 11:25:00,50.9,34.8,29.90,NNW,341,3.5,3.5,54,0.00,CLR,,0.00,WeatherDisplay:10.37,2013-09-24 15:25:00,
2013-09-24 11:30:00,50.7,34.6,29.90,NW,305,8.1,8.1,54,0.00,CLR,,0.00,WeatherDisplay:10.37,2013-09-24 15:30:00,
2013-09-24 11:35:00,51.4,35.3,29.90,NW,307,5.0,5.0,54,0.00,CLR,,0.00,WeatherDisplay:10.37,2013-09-24 15:35:00,
2013-09-24 11:40:00,50.9,34.8,29.90,WNW,303,4.6,4.6,54,0.00,CLR,,0.00,WeatherDisplay:10.37,2013-09-24 15:40:00,
2013-09-24 11:45:00,51.2,35.1,29.90,NW,307,8.1,8.1,54,0.00,CLR,,0.00,WeatherDisplay:10.37,2013-09-24 15:45:00,
2013-09-24 11:50:00,52.3,36.1,29.90,NNW,329,3.5,3.5,54,0.00,CLR,,0.00,WeatherDisplay:10.37,2013-09-24 15:50:00,
2013-09-24 11:55:00,51.7,35.6,29.90,WNW,293,7.0,7.0,54,0.00,CLR,,0.00,WeatherDisplay:10.37,2013-09-24 15:55:00,
2013-09-24 12:00:00,52.8,36.6,29.90,WNW,300,3.5,3.5,54,0.00,CLR,,0.00,WeatherDisplay:10.37,2013-09-24 16:00:00,
2013-09-24 12:05:00,52.5,36.3,29.90,WNW,299,4.0,4.0,54,0.00,CLR,,0.00,WeatherDisplay:10.37,2013-09-24 16:05:00,
2013-09-24 12:10:00,52.1,35.9,29.90,NNW,328,5.0,5.0,54,0.00,CLR,,0.00,WeatherDisplay:10.37,2013-09-24 16:10:00,
2013-09-24 12:15:00,52.3,34.2,29.89,WNW,300,4.6,4.6,50,0.00,CLR,,0.00,WeatherDisplay:10.37,2013-09-24 16:15:00,
2013-09-24 12:20:00,53.0,34.8,29.89,WNW,294,4.6,4.6,50,0.00,CLR,,0.00,WeatherDisplay:10.37,2013-09-24 16:20:00,
2013-09-24 12:25:00,52.7,34.6,29.89,NW,304,3.5,3.5,50,0.00,CLR,,0.00,WeatherDisplay:10.37,2013-09-24 16:25:00,
2013-09-24 12:30:00,53.2,35.0,29.89,NW,312,4.6,4.6,50,0.00,CLR,,0.00,WeatherDisplay:10.37,2013-09-24 16:30:00,
2013-09-24 12:35:00,53.4,35.2,29.89,WNW,291,3.5,3.5,50,0.00,CLR,,0.00,WeatherDisplay:10.37,2013-09-24 16:35:00,
2013-09-24 12:40:00,54.0,35.8,29.89,WNW,292,4.0,4.0,50,0.00,CLR,,0.00,WeatherDisplay:10.37,2013-09-24 16:40:00,
2013-09-24 12:45:00,54.2,35.9,29.89,WNW,292,3.0,3.0,50,0.00,CLR,,0.00,WeatherDisplay:10.37,2013-09-24 16:45:00,
2013-09-24 12:50:00,54.7,36.4,29.89,WNW,292,3.5,3.5,50,0.00,CLR,,0.00,WeatherDisplay:10.37,2013-09-24 16:50:00,
2013-09-24 12:55:00,53.9,35.7,29.89,NNW,341,5.8,5.8,50,0.00,CLR,,0.00,WeatherDisplay:10.37,2013-09-24 16:55:00,
2013-09-24 13:00:00,54.4,36.1,29.89,WNW,301,3.5,3.5,50,0.00,CLR,,0.00,WeatherDisplay:10.37,2013-09-24 17:00:00,
2013-09-24 13:05:00,54.3,36.0,29.89,NW,307,3.5,3.5,50,0.00,CLR,,0.00,WeatherDisplay:10.37,2013-09-24 17:05:00,
2013-09-24 13:10:00,54.8,36.5,29.89,NW,307,3.5,3.5,50,0.00,CLR,,0.00,WeatherDisplay:10.37,2013-09-24 17:10:00,
2013-09-24 13:15:00,54.3,34.5,29.88,NW,313,3.5,3.5,47,0.00,CLR,,0.00,WeatherDisplay:10.37,2013-09-24 17:15:00,
2013-09-24 13:20:00,55.1,35.2,29.88,NW,311,3.5,3.5,47,0.00,CLR,,0.00,WeatherDisplay:10.37,2013-09-24 17:20:00,
2013-09-24 13:25:00,56.0,36.0,29.88,NW,309,2.3,2.3,47,0.00,CLR,,0.00,WeatherDisplay:10.37,2013-09-24 17:25:00,
2013-09-24 13:30:00,56.0,36.0,29.88,NW,309,2.3,2.3,47,0.00,CLR,,0.00,WeatherDisplay:10.37,2013-09-24 17:30:00,
2013-09-24 13:35:00,55.7,35.8,29.88,NW,309,3.5,3.5,47,0.00,CLR,,0.00,WeatherDisplay:10.37,2013-09-24 17:35:00,
2013-09-24 13:40:00,54.9,35.0,29.88,NW,309,3.5,3.5,47,0.00,CLR,,0.00,WeatherDisplay:10.37,2013-09-24 17:40:00,
2013-09-24 13:45:00,54.9,35.0,29.88,NW,309,4.0,4.0,47,0.00,CLR,,0.00,WeatherDisplay:10.37,2013-09-24 17:45:00,
2013-09-24 13:50:00,55.3,35.4,29.88,NW,308,4.6,4.6,47,0.00,CLR,,0.00,WeatherDisplay:10.37,2013-09-24 17:50:00,
2013-09-24 13:55:00,55.1,35.2,29.88,NW,308,5.8,5.8,47,0.00,CLR,,0.00,WeatherDisplay:10.37,2013-09-24 17:55:00,
2013-09-24 14:00:00,55.2,35.3,29.88,WNW,295,8.1,8.1,47,0.00,CLR,,0.00,WeatherDisplay:10.37,2013-09-24 18:00:00,
2013-09-24 14:05:00,55.6,32.8,29.84,NW,305,4.0,4.0,42,0.00,CLR,,0.00,WeatherDisplay:10.37,2013-09-24 18:05:00,
2013-09-24 14:10:00,56.1,33.3,29.84,NW,304,5.0,5.0,42,0.00,CLR,,0.00,WeatherDisplay:10.37,2013-09-24 18:10:00,
2013-09-24 14:15:00,56.0,33.2,29.84,WNW,302,4.6,4.6,42,0.00,CLR,,0.00,WeatherDisplay:10.37,2013-09-24 18:15:00,
2013-09-24 14:20:00,55.8,33.0,29.84,WNW,302,3.5,3.5,42,0.00,CLR,,0.00,WeatherDisplay:10.37,2013-09-24 18:20:00,
2013-09-24 14:25:00,56.6,33.8,29.84,WNW,303,4.6,4.6,42,0.00,CLR,,0.00,WeatherDisplay:10.37,2013-09-24 18:25:00,
2013-09-24 14:30:00,56.6,33.8,29.84,NW,305,3.5,3.5,42,0.00,CLR,,0.00,WeatherDisplay:10.37,2013-09-24 18:30:00,
2013-09-24 14:35:00,56.7,33.8,29.84,NW,305,3.5,3.5,42,0.00,CLR,,0.00,WeatherDisplay:10.37,2013-09-24 18:35:00,
2013-09-24 14:40:00,56.4,33.6,29.84,NW,305,3.5,3.5,42,0.00,CLR,,0.00,WeatherDisplay:10.37,2013-09-24 18:40:00,
2013-09-24 14:45:00,56.8,33.9,29.84,NW,305,2.3,2.3,42,0.00,CLR,,0.00,WeatherDisplay:10.37,2013-09-24 18:45:00,
2013-09-24 14:50:00,56.3,33.5,29.84,North,7,4.6,4.6,42,0.00,CLR,,0.00,WeatherDisplay:10.37,2013-09-24 18:50:00,
2013-09-24 14:55:00,56.4,33.6,29.84,North,7,2.3,2.3,42,0.00,CLR,,0.00,WeatherDisplay:10.37,2013-09-24 18:55:00,
2013-09-24 15:00:00,56.0,33.2,29.84,NNW,341,6.9,6.9,42,0.00,CLR,,0.00,WeatherDisplay:10.37,2013-09-24 19:00:00,
2013-09-24 15:05:00,56.0,32.6,29.84,NW,309,3.5,3.5,41,0.00,CLR,,0.00,WeatherDisplay:10.37,2013-09-24 19:05:00,
2013-09-24 15:10:00,55.9,32.5,29.84,NW,316,4.6,4.6,41,0.00,CLR,,0.00,WeatherDisplay:10.37,2013-09-24 19:10:00,
2013-09-24 15:15:00,56.2,32.8,29.84,NNW,345,4.6,4.6,41,0.00,CLR,,0.00,WeatherDisplay:10.37,2013-09-24 19:15:00,
2013-09-24 15:20:00,56.4,33.0,29.84,NW,313,4.6,4.6,41,0.00,CLR,,0.00,WeatherDisplay:10.37,2013-09-24 19:20:00,
2013-09-24 15:25:00,56.4,33.0,29.84,NW,314,3.5,3.5,41,0.00,CLR,,0.00,WeatherDisplay:10.37,2013-09-24 19:25:00,
2013-09-24 15:30:00,56.7,33.2,29.84,WNW,288,4.6,4.6,41,0.00,CLR,,0.00,WeatherDisplay:10.37,2013-09-24 19:30:00,
2013-09-24 15:35:00,56.9,33.4,29.84,NNW,334,5.8,5.8,41,0.00,CLR,,0.00,WeatherDisplay:10.37,2013-09-24 19:35:00,
2013-09-24 15:40:00,57.1,33.6,29.84,NNW,327,4.0,4.0,41,0.00,CLR,,0.00,WeatherDisplay:10.37,2013-09-24 19:40:00,
2013-09-24 15:45:00,57.2,33.7,29.84,NW,325,5.8,5.8,41,0.00,CLR,,0.00,WeatherDisplay:10.37,2013-09-24 19:45:00,
2013-09-24 15:50:00,57.3,33.8,29.84,NW,324,5.0,5.0,41,0.00,CLR,,0.00,WeatherDisplay:10.37,2013-09-24 19:50:00,
2013-09-24 15:55:00,56.6,33.2,29.84,NW,305,7.0,7.0,41,0.00,CLR,,0.00,WeatherDisplay:10.37,2013-09-24 19:55:00,
2013-09-24 16:00:00,56.8,33.3,29.84,NW,308,8.1,8.1,41,0.00,CLR,,0.00,WeatherDisplay:10.37,2013-09-24 20:00:00,
2013-09-24 16:05:00,55.9,31.3,29.84,NW,310,5.8,5.8,39,0.00,CLR,,0.00,WeatherDisplay:10.37,2013-09-24 20:05:00,
2013-09-24 16:10:00,55.5,30.9,29.84,WNW,303,5.8,5.8,39,0.00,CLR,,0.00,WeatherDisplay:10.37,2013-09-24 20:10:00,
2013-09-24 16:15:00,55.2,30.7,29.84,NW,311,5.8,5.8,39,0.00,CLR,,0.00,WeatherDisplay:10.37,2013-09-24 20:15:00,
2013-09-24 16:20:00,55.2,30.7,29.84,NW,307,4.6,4.6,39,0.00,CLR,,0.00,WeatherDisplay:10.37,2013-09-24 20:20:00,
2013-09-24 16:25:00,55.2,30.7,29.84,NW,305,3.5,3.5,39,0.00,CLR,,0.00,WeatherDisplay:10.37,2013-09-24 20:25:00,
2013-09-24 16:30:00,55.0,30.5,29.84,NW,306,3.5,3.5,39,0.00,CLR,,0.00,WeatherDisplay:10.37,2013-09-24 20:30:00,
2013-09-24 16:35:00,55.0,30.5,29.84,NW,306,4.0,4.0,39,0.00,CLR,,0.00,WeatherDisplay:10.37,2013-09-24 20:35:00,
2013-09-24 16:40:00,54.9,30.4,29.84,NNW,338,4.6,4.6,39,0.00,CLR,,0.00,WeatherDisplay:10.37,2013-09-24 20:40:00,
2013-09-24 16:45:00,54.9,30.4,29.84,NNW,333,3.5,3.5,39,0.00,CLR,,0.00,WeatherDisplay:10.37,2013-09-24 20:45:00,
2013-09-24 16:50:00,54.7,30.2,29.84,NNW,333,3.5,3.5,39,0.00,CLR,,0.00,WeatherDisplay:10.37,2013-09-24 20:50:00,
2013-09-24 16:55:00,54.7,30.2,29.84,NNW,333,2.3,2.3,39,0.00,CLR,,0.00,WeatherDisplay:10.37,2013-09-24 20:55:00,
2013-09-24 17:00:00,54.6,30.1,29.84,NNW,332,3.5,3.5,39,0.00,CLR,,0.00,WeatherDisplay:10.37,2013-09-24 21:00:00,
2013-09-24 17:05:00,54.2,34.4,29.86,NNW,332,3.5,3.5,47,0.00,OVC,,0.00,WeatherDisplay:10.37,2013-09-24 21:05:00,
2013-09-24 17:10:00,53.9,34.1,29.86,NNW,332,3.5,3.5,47,0.00,OVC,,0.00,WeatherDisplay:10.37,2013-09-24 21:10:00,
2013-09-24 17:15:00,53.8,34.0,29.86,NNW,332,3.5,3.5,47,0.00,OVC,,0.00,WeatherDisplay:10.37,2013-09-24 21:15:00,
2013-09-24 17:20:00,53.6,33.8,29.86,NW,316,3.5,3.5,47,0.00,OVC,,0.00,WeatherDisplay:10.37,2013-09-24 21:20:00,
2013-09-24 17:25:00,53.5,33.7,29.86,NW,321,4.0,4.0,47,0.00,OVC,,0.00,WeatherDisplay:10.37,2013-09-24 21:25:00,
2013-09-24 17:30:00,53.3,33.6,29.86,NW,304,4.6,4.6,47,0.00,OVC,,0.00,WeatherDisplay:10.37,2013-09-24 21:30:00,
2013-09-24 17:35:00,53.2,33.5,29.86,NW,310,3.5,3.5,47,0.00,OVC,,0.00,WeatherDisplay:10.37,2013-09-24 21:35:00,
2013-09-24 17:40:00,53.0,33.3,29.86,NW,310,2.3,2.3,47,0.00,OVC,,0.00,WeatherDisplay:10.37,2013-09-24 21:40:00,
2013-09-24 17:45:00,52.8,33.1,29.86,NW,310,3.0,3.0,47,0.00,OVC,,0.00,WeatherDisplay:10.37,2013-09-24 21:45:00,
2013-09-24 17:50:00,52.8,33.1,29.86,NW,310,3.5,3.5,47,0.00,OVC,,0.00,WeatherDisplay:10.37,2013-09-24 21:50:00,
2013-09-24 17:55:00,52.7,33.0,29.86,NW,324,4.6,4.6,47,0.00,OVC,,0.00,WeatherDisplay:10.37,2013-09-24 21:55:00,
2013-09-24 18:00:00,52.5,32.8,29.86,NW,324,4.6,4.6,47,0.00,OVC,,0.00,WeatherDisplay:10.37,2013-09-24 22:00:00,
2013-09-24 18:05:00,52.3,34.7,29.87,NW,325,4.6,4.6,51,0.00,SCT,,0.00,WeatherDisplay:10.37,2013-09-24 22:05:00,
2013-09-24 18:10:00,52.0,34.4,29.87,NW,325,3.5,3.5,51,0.00,SCT,,0.00,WeatherDisplay:10.37,2013-09-24 22:10:00,
2013-09-24 18:15:00,51.9,34.3,29.87,NW,309,4.6,4.6,51,0.00,SCT,,0.00,WeatherDisplay:10.37,2013-09-24 22:15:00,
2013-09-24 18:20:00,52.0,34.4,29.87,NW,309,3.5,3.5,51,0.00,SCT,,0.00,WeatherDisplay:10.37,2013-09-24 22:20:00,
2013-09-24 18:25:00,51.6,34.0,29.87,NW,309,3.5,3.5,51,0.00,SCT,,0.00,WeatherDisplay:10.37,2013-09-24 22:25:00,
2013-09-24 18:30:00,51.4,33.9,29.87,NW,309,1.1,1.1,51,0.00,SCT,,0.00,WeatherDisplay:10.37,2013-09-24 22:30:00,
2013-09-24 18:35:00,51.6,34.0,29.87,NW,309,0.0,0.0,51,0.00,SCT,,0.00,WeatherDisplay:10.37,2013-09-24 22:35:00,
2013-09-24 18:40:00,51.7,34.1,29.87,NW,309,2.0,2.0,51,0.00,SCT,,0.00,WeatherDisplay:10.37,2013-09-24 22:40:00,
2013-09-24 18:45:00,51.3,33.8,29.87,NW,309,1.1,0.0,51,0.00,SCT,,0.00,WeatherDisplay:10.37,2013-09-24 22:45:00,
2013-09-24 18:50:00,50.9,33.4,29.87,NW,309,3.5,3.5,51,0.00,SCT,,0.00,WeatherDisplay:10.37,2013-09-24 22:50:00,
2013-09-24 18:55:00,51.0,33.5,29.87,NW,309,2.3,2.3,51,0.00,SCT,,0.00,WeatherDisplay:10.37,2013-09-24 22:55:00,
2013-09-24 19:00:00,50.8,33.3,29.87,NW,309,2.3,2.3,51,0.00,SCT,,0.00,WeatherDisplay:10.37,2013-09-24 23:00:00,
2013-09-24 19:05:00,50.7,33.2,29.87,NW,309,3.5,3.5,51,0.00,SCT,,0.00,WeatherDisplay:10.37,2013-09-24 23:05:00,
2013-09-24 19:10:00,50.7,33.2,29.87,NW,309,3.5,3.5,51,0.00,SCT,,0.00,WeatherDisplay:10.37,2013-09-24 23:10:00,
2013-09-24 19:15:00,50.4,38.3,29.89,NW,309,3.5,3.5,63,0.00,OVC,,0.00,WeatherDisplay:10.37,2013-09-24 23:15:00,
2013-09-24 19:20:00,50.5,38.4,29.89,NW,309,3.0,3.0,63,0.00,OVC,,0.00,WeatherDisplay:10.37,2013-09-24 23:20:00,
2013-09-24 19:25:00,50.4,38.3,29.89,NW,309,3.5,3.5,63,0.00,OVC,,0.00,WeatherDisplay:10.37,2013-09-24 23:25:00,
2013-09-24 19:30:00,50.2,38.1,29.89,NW,309,3.5,3.5,63,0.00,OVC,,0.00,WeatherDisplay:10.37,2013-09-24 23:30:00,
2013-09-24 19:35:00,51.3,39.1,29.89,NW,309,1.1,1.1,63,0.00,OVC,,0.00,WeatherDisplay:10.37,2013-09-24 23:35:00,
2013-09-24 19:40:00,51.1,38.9,29.89,NW,309,1.1,1.1,63,0.00,OVC,,0.00,WeatherDisplay:10.37,2013-09-24 23:40:00,
2013-09-24 19:45:00,50.4,38.3,29.89,NW,309,0.0,0.0,63,0.00,OVC,,0.00,WeatherDisplay:10.37,2013-09-24 23:45:00,
2013-09-24 19:50:00,51.0,38.8,29.89,NW,309,0.0,0.0,63,0.00,OVC,,0.00,WeatherDisplay:10.37,2013-09-24 23:50:00,
2013-09-24 19:55:00,50.2,38.1,29.89,NW,309,0.0,0.0,63,0.00,OVC,,0.00,WeatherDisplay:10.37,2013-09-24 23:55:00,
2013-09-24 20:00:00,50.7,38.6,29.89,NW,309,0.0,0.0,63,0.00,OVC,,0.00,WeatherDisplay:10.37,2013-09-25 00:00:00,
2013-09-24 20:05:00,50.2,39.3,29.91,NW,309,0.0,0.0,66,0.00,CLR,,0.00,WeatherDisplay:10.37,2013-09-25 00:05:00,
2013-09-24 20:10:00,51.2,40.2,29.91,NW,309,0.0,0.0,66,0.00,CLR,,0.00,WeatherDisplay:10.37,2013-09-25 00:10:00,
2013-09-24 20:15:00,49.8,38.9,29.91,NW,309,0.0,0.0,66,0.00,CLR,,0.00,WeatherDisplay:10.37,2013-09-25 00:15:00,
2013-09-24 20:20:00,50.2,39.3,29.91,NW,309,1.1,1.1,66,0.00,CLR,,0.00,WeatherDisplay:10.37,2013-09-25 00:20:00,
2013-09-24 20:25:00,50.9,39.9,29.91,NW,309,0.0,0.0,66,0.00,CLR,,0.00,WeatherDisplay:10.37,2013-09-25 00:25:00,
2013-09-24 20:30:00,50.5,39.6,29.91,NW,309,0.0,0.0,66,0.00,CLR,,0.00,WeatherDisplay:10.37,2013-09-25 00:30:00,
2013-09-24 20:35:00,51.0,40.0,29.91,NW,309,0.0,0.0,66,0.00,CLR,,0.00,WeatherDisplay:10.37,2013-09-25 00:35:00,
2013-09-24 20:40:00,51.2,40.2,29.91,NW,309,0.0,0.0,66,0.00,CLR,,0.00,WeatherDisplay:10.37,2013-09-25 00:40:00,
2013-09-24 20:45:00,50.1,39.2,29.91,NW,309,0.0,0.0,66,0.00,CLR,,0.00,WeatherDisplay:10.37,2013-09-25 00:45:00,
2013-09-24 20:50:00,50.6,39.7,29.91,NW,309,0.0,0.0,66,0.00,CLR,,0.00,WeatherDisplay:10.37,2013-09-25 00:50:00,
2013-09-24 20:55:00,50.1,39.2,29.91,NW,309,0.0,0.0,66,0.00,CLR,,0.00,WeatherDisplay:10.37,2013-09-25 00:55:00,
2013-09-24 21:00:00,51.3,40.3,29.91,NW,309,0.0,0.0,66,0.00,CLR,,0.00,WeatherDisplay:10.37,2013-09-25 01:00:00,
2013-09-24 21:05:00,50.2,39.3,29.91,NW,309,0.0,0.0,66,0.00,CLR,,0.00,WeatherDisplay:10.37,2013-09-25 01:05:00,
2013-09-24 21:10:00,51.2,40.2,29.91,NW,309,0.0,0.0,66,0.00,CLR,,0.00,WeatherDisplay:10.37,2013-09-25 01:10:00,
2013-09-24 21:15:00,51.3,40.3,29.91,NW,309,0.0,0.0,66,0.00,CLR,,0.00,WeatherDisplay:10.37,2013-09-25 01:15:00,
2013-09-24 21:20:00,51.3,40.3,29.91,NW,309,0.0,0.0,66,0.00,CLR,,0.00,WeatherDisplay:10.37,2013-09-25 01:20:00,
2013-09-24 21:25:00,51.2,40.2,29.91,NW,309,0.0,0.0,66,0.00,CLR,,0.00,WeatherDisplay:10.37,2013-09-25 01:25:00,
2013-09-24 21:30:00,51.3,40.3,29.91,NW,309,0.0,0.0,66,0.00,CLR,,0.00,WeatherDisplay:10.37,2013-09-25 01:30:00,
2013-09-24 21:35:00,51.1,40.1,29.91,NW,309,0.0,0.0,66,0.00,CLR,,0.00,WeatherDisplay:10.37,2013-09-25 01:35:00,
2013-09-24 21:40:00,51.2,40.2,29.91,NW,309,0.0,0.0,66,0.00,CLR,,0.00,WeatherDisplay:10.37,2013-09-25 01:40:00,
2013-09-24 21:45:00,50.0,39.1,29.91,NW,309,0.0,0.0,66,0.00,CLR,,0.00,WeatherDisplay:10.37,2013-09-25 01:45:00,
2013-09-24 21:50:00,51.0,40.0,29.91,NW,309,0.0,0.0,66,0.00,CLR,,0.00,WeatherDisplay:10.37,2013-09-25 01:50:00,
2013-09-24 21:55:00,50.1,39.2,29.91,NW,309,0.0,0.0,66,0.00,CLR,,0.00,WeatherDisplay:10.37,2013-09-25 01:55:00,
2013-09-24 22:00:00,49.4,38.5,29.91,NW,309,0.0,0.0,66,0.00,CLR,,0.00,WeatherDisplay:10.37,2013-09-25 02:00:00,
2013-09-24 22:05:00,48.9,40.6,29.92,NW,309,0.0,0.0,73,0.00,OVC,,0.00,WeatherDisplay:10.37,2013-09-25 02:05:00,
2013-09-24 22:10:00,48.3,40.0,29.92,NW,309,0.0,0.0,73,0.00,OVC,,0.00,WeatherDisplay:10.37,2013-09-25 02:10:00,
2013-09-24 22:15:00,48.4,40.1,29.92,NW,309,0.0,0.0,73,0.00,OVC,,0.00,WeatherDisplay:10.37,2013-09-25 02:15:00,
2013-09-24 22:20:00,50.5,42.2,29.92,NW,309,0.0,0.0,73,0.00,OVC,,0.00,WeatherDisplay:10.37,2013-09-25 02:20:00,
2013-09-24 22:25:00,49.5,41.2,29.92,NW,309,0.0,0.0,73,0.00,OVC,,0.00,WeatherDisplay:10.37,2013-09-25 02:25:00,
2013-09-24 22:30:00,48.1,39.9,29.92,NW,309,0.0,0.0,73,0.00,OVC,,0.00,WeatherDisplay:10.37,2013-09-25 02:30:00,
2013-09-24 22:35:00,47.9,39.7,29.92,NW,309,0.0,0.0,73,0.00,OVC,,0.00,WeatherDisplay:10.37,2013-09-25 02:35:00,
2013-09-24 22:40:00,48.3,40.0,29.92,NW,309,0.0,0.0,73,0.00,OVC,,0.00,WeatherDisplay:10.37,2013-09-25 02:40:00,
2013-09-24 22:45:00,48.5,40.2,29.92,NW,309,0.0,0.0,73,0.00,OVC,,0.00,WeatherDisplay:10.37,2013-09-25 02:45:00,
2013-09-24 22:50:00,49.1,40.8,29.92,NW,309,0.0,0.0,73,0.00,OVC,,0.00,WeatherDisplay:10.37,2013-09-25 02:50:00,
2013-09-24 22:55:00,49.4,41.1,29.92,NW,309,0.0,0.0,73,0.00,OVC,,0.00,WeatherDisplay:10.37,2013-09-25 02:55:00,
2013-09-24 23:00:00,49.9,41.6,29.92,NW,309,0.0,0.0,73,0.00,OVC,,0.00,WeatherDisplay:10.37,2013-09-25 03:00:00,
2013-09-24 23:05:00,49.5,41.2,29.92,NW,309,0.0,0.0,73,0.00,OVC,,0.00,WeatherDisplay:10.37,2013-09-25 03:05:00,
2013-09-24 23:10:00,48.8,40.5,29.92,NW,309,0.0,0.0,73,0.00,OVC,,0.00,WeatherDisplay:10.37,2013-09-25 03:10:00,
2013-09-24 23:15:00,49.0,41.8,29.91,NW,309,0.0,0.0,76,0.00,SCT,,0.00,WeatherDisplay:10.37,2013-09-25 03:15:00,
2013-09-24 23:20:00,50.2,42.9,29.91,NW,309,0.0,0.0,76,0.00,SCT,,0.00,WeatherDisplay:10.37,2013-09-25 03:20:00,
2013-09-24 23:25:00,49.9,42.6,29.91,NW,309,0.0,0.0,76,0.00,SCT,,0.00,WeatherDisplay:10.37,2013-09-25 03:25:00,
2013-09-24 23:30:00,49.7,42.4,29.91,NW,309,0.0,0.0,76,0.00,SCT,,0.00,WeatherDisplay:10.37,2013-09-25 03:30:00,
2013-09-24 23:35:00,50.7,43.4,29.91,NW,309,1.1,1.1,76,0.00,SCT,,0.00,WeatherDisplay:10.37,2013-09-25 03:35:00,
2013-09-24 23:40:00,50.5,43.2,29.91,NW,309,0.0,0.0,76,0.00,SCT,,0.00,WeatherDisplay:10.37,2013-09-25 03:40:00,
2013-09-24 23:45:00,50.2,42.9,29.91,NW,309,0.0,0.0,76,0.00,SCT,,0.00,WeatherDisplay:10.37,2013-09-25 03:45:00,
2013-09-24 23:50:00,50.1,42.8,29.91,NW,309,0.0,0.0,76,0.00,SCT,,0.00,WeatherDisplay:10.37,2013-09-25 03:50:00,
2013-09-24 23:55:00,50.8,43.5,29.91,NW,309,0.0,0.0,76,0.00,SCT,,0.00,WeatherDisplay:10.37,2013-09-25 03:55:00,